Terminal Aerodrome Forecast
Issued by NWS

Home | Current Version | Previous Version | Text Only | Print | Product List | Glossary On
Versions: 1 2 3 4 5 6 7 8 9 10 11 12 13 14 15 16 17 18 19 20 21 22 23 24 25 26 27 28 29 30 31 32 33 34
000
FTUS41 KBOX 080545
TAFBED
TAF
KBED 080545Z 0806/0906 21006KT P6SM FEW120
     FM080800 22009KT P6SM FEW020 SCT120
     FM081100 22008KT P6SM BKN010 BKN020
     FM081300 23008KT P6SM BKN200
     FM081600 26009KT P6SM VCTS OVC025CB
     FM081800 27009KT P6SM OVC025
     FM081900 27008KT P6SM BKN035=

USA.gov is the U.S. government's official web portal to all federal, state and local government web resources and services.